KFNT/FNT METAR and TAF weather

Enter ICAO airport designator
Station Type Date Time Source
KFNT METAR 2021/09/27 07:53 UTC NOAA

KFNT 270753Z AUTO 23010G18KT 10SM CLR 19/10 A2980 RMK AO2 SLP088 T01890100


Station Type Date Time Source
KFNT Decoded METAR 2021/09/27 07:53 UTC NOAA

FLINT BISHOP INTERNATIONAL AIRPORT, MI, United States (KFNT) 42-58N 83-45W 233M
Sep 27, 2021 - 03:53 AM EDT / 2021.09.27 0753 UTC
Wind: from the SW (230 degrees) at 12 MPH (10 KT) gusting to 21 MPH (18 KT):0
Visibility: 10 mile(s):0
Sky conditions: clear
Temperature: 66.0 F (18.9 C)
Dew Point: 50.0 F (10.0 C)
Relative Humidity: 56%
Pressure (altimeter): 29.8 in. Hg (1009 hPa)
ob: KFNT 270753Z AUTO 23010G18KT 10SM CLR 19/10 A2980 RMK AO2 SLP088 T01890100
cycle: 8

Station Type Date Time Source
KFNT TAF 2021/09/27 06:24 UTC NOAA

TAF KFNT 270523Z 2706/2806 22010KT P6SM SCT120 BKN250 WS015/25040KT
FM271300 24013KT P6SM SCT040 BKN250
FM271900 30010KT P6SM BKN045
FM272200 03010KT P6SM SCT025 OVC040

Example: see airport list